createdAt,value
2019-06-08T00:00:34.493Z,29.02
2019-06-08T00:01:09.629Z,28.87
2019-06-08T00:01:44.831Z,26.02
2019-06-08T00:02:20.586Z,32.35
2019-06-08T00:02:55.870Z,27.52
2019-06-08T00:03:31.214Z,27.77
2019-06-08T00:04:06.075Z,29.07
2019-06-08T00:04:41.223Z,28.77
2019-06-08T00:05:16.861Z,33.70
2019-06-08T00:05:51.621Z,28.00
2019-06-08T00:06:26.564Z,33.78
2019-06-08T00:07:01.460Z,30.45
2019-06-08T00:07:35.915Z,29.27
2019-06-08T00:08:10.729Z,32.70
2019-06-08T00:08:45.583Z,35.90
2019-06-08T00:09:20.855Z,36.60
2019-06-08T00:09:56.792Z,43.20
2019-06-08T00:10:31.535Z,31.77
2019-06-08T00:11:06.076Z,39.95
2019-06-08T00:11:40.968Z,31.48
2019-06-08T00:12:16.940Z,29.25
2019-06-08T00:12:51.625Z,31.42
2019-06-08T00:13:26.522Z,42.03
2019-06-08T00:14:01.486Z,41.20
2019-06-08T00:14:36.009Z,36.13
2019-06-08T00:15:11.473Z,38.50
2019-06-08T00:15:46.680Z,42.60
2019-06-08T00:16:21.483Z,37.53
2019-06-08T00:16:56.493Z,35.80
2019-06-08T00:17:38.381Z,41.05
2019-06-08T00:18:07.391Z,36.45
2019-06-08T00:18:42.421Z,33.35
2019-06-08T00:19:17.550Z,33.15
2019-06-08T00:19:51.810Z,27.95
2019-06-08T00:20:26.977Z,31.85
2019-06-08T00:21:01.944Z,30.92
2019-06-08T00:21:36.197Z,32.58
2019-06-08T00:22:11.067Z,33.92
2019-06-08T00:22:46.022Z,28.05
2019-06-08T00:23:20.359Z,24.20
2019-06-08T00:23:55.312Z,27.05
2019-06-08T00:24:30.433Z,25.25
2019-06-08T00:25:05.669Z,23.70
2019-06-08T00:25:40.808Z,26.75
2019-06-08T00:26:16.020Z,27.67
2019-06-08T00:26:50.417Z,25.77
2019-06-08T00:27:25.577Z,24.77
2019-06-08T00:28:00.693Z,24.23
2019-06-08T00:28:35.171Z,23.12
2019-06-08T00:29:10.310Z,26.37
2019-06-08T00:29:45.223Z,28.15
2019-06-08T00:30:22.913Z,28.07
2019-06-08T00:30:57.894Z,30.30
2019-06-08T00:31:32.784Z,27.93
2019-06-08T00:32:07.267Z,26.62
2019-06-08T00:32:42.311Z,30.57
2019-06-08T00:33:18.487Z,27.80
2019-06-08T00:33:53.224Z,31.33
2019-06-08T00:34:28.411Z,36.85
2019-06-08T00:35:03.264Z,38.50
2019-06-08T00:35:37.797Z,37.93
2019-06-08T00:36:14.663Z,53.45
2019-06-08T00:36:49.992Z,39.70
2019-06-08T00:37:25.025Z,34.48
2019-06-08T00:38:03.498Z,26.00
2019-06-08T00:38:38.410Z,37.88
2019-06-08T00:39:13.242Z,37.50
2019-06-08T00:39:48.104Z,39.70
2019-06-08T00:40:23.290Z,34.65
2019-06-08T00:40:57.544Z,41.98
2019-06-08T00:41:32.332Z,43.63
2019-06-08T00:42:07.508Z,43.33
2019-06-08T00:42:41.988Z,48.95
2019-06-08T00:43:17.299Z,37.38
2019-06-08T00:43:52.598Z,39.73
2019-06-08T00:44:27.291Z,38.63
2019-06-08T00:45:02.568Z,36.70
2019-06-08T00:45:37.466Z,25.62
2019-06-08T00:46:11.850Z,21.10
2019-06-08T00:46:46.597Z,23.62
2019-06-08T00:47:22.584Z,26.23
2019-06-08T00:47:56.969Z,24.82
2019-06-08T00:48:31.823Z,42.78
2019-06-08T00:49:07.108Z,32.15
2019-06-08T00:49:42.167Z,28.80
2019-06-08T00:50:18.677Z,29.98
2019-06-08T00:50:53.971Z,27.42
2019-06-08T00:51:29.779Z,29.72
2019-06-08T00:52:05.024Z,26.75
2019-06-08T00:52:39.893Z,27.10
2019-06-08T00:53:14.441Z,25.70
2019-06-08T00:53:49.480Z,30.05
2019-06-08T00:54:25.818Z,24.95
2019-06-08T00:55:00.727Z,30.20
2019-06-08T00:55:35.751Z,31.62
2019-06-08T00:56:11.086Z,35.88
2019-06-08T00:56:45.691Z,34.45
2019-06-08T00:57:21.786Z,38.45
2019-06-08T00:57:56.864Z,32.67
2019-06-08T00:58:31.281Z,43.92
2019-06-08T00:59:06.481Z,37.73
2019-06-08T00:59:41.617Z,44.33
2019-06-08T01:00:18.287Z,39.75
2019-06-08T01:00:53.414Z,31.35
2019-06-08T01:01:28.652Z,22.87
2019-06-08T01:02:03.185Z,27.55
2019-06-08T01:02:38.262Z,31.73
2019-06-08T01:03:13.298Z,29.52
2019-06-08T01:03:47.709Z,24.32
2019-06-08T01:04:22.966Z,26.77
2019-06-08T01:04:57.832Z,24.98
2019-06-08T01:05:32.557Z,25.12
2019-06-08T01:06:07.782Z,31.45
2019-06-08T01:06:43.256Z,28.27
2019-06-08T01:07:17.967Z,23.50
2019-06-08T01:07:52.953Z,21.45
2019-06-08T01:08:27.841Z,24.02
2019-06-08T01:09:02.293Z,18.27
2019-06-08T01:09:37.394Z,15.63
2019-06-08T01:10:12.964Z,19.90
2019-06-08T01:10:47.745Z,25.05
2019-06-08T01:11:22.742Z,23.98
2019-06-08T01:11:57.481Z,22.17
2019-06-08T01:12:32.018Z,23.90
2019-06-08T01:13:07.295Z,29.07
2019-06-08T01:13:42.338Z,22.02
2019-06-08T01:14:16.482Z,24.90
2019-06-08T01:14:51.550Z,31.37
2019-06-08T01:15:32.922Z,39.33
2019-06-08T01:16:04.378Z,44.55
2019-06-08T01:16:39.410Z,50.23
2019-06-08T01:17:14.373Z,44.65
2019-06-08T01:18:01.558Z,32.85
2019-06-08T01:18:25.896Z,27.58
2019-06-08T01:19:01.049Z,16.42
2019-06-08T01:19:35.334Z,17.02
2019-06-08T01:20:10.236Z,32.00
2019-06-08T01:20:45.462Z,41.65
2019-06-08T01:21:21.288Z,25.85
2019-06-08T01:21:56.294Z,30.23
2019-06-08T01:22:31.181Z,37.48
2019-06-08T01:23:05.498Z,36.45
2019-06-08T01:23:40.384Z,29.67
2019-06-08T01:24:15.167Z,23.32
2019-06-08T01:24:49.514Z,19.65
2019-06-08T01:25:25.711Z,17.35
2019-06-08T01:26:01.293Z,25.23
2019-06-08T01:26:35.503Z,23.20
2019-06-08T01:27:10.264Z,25.72
2019-06-08T01:27:45.192Z,26.93
2019-06-08T01:28:19.961Z,28.15
2019-06-08T01:28:54.854Z,25.40
2019-06-08T01:29:30.244Z,29.40
2019-06-08T01:30:06.013Z,35.45
2019-06-08T01:30:42.087Z,34.98
2019-06-08T01:31:16.802Z,41.68
2019-06-08T01:31:50.984Z,39.18
2019-06-08T01:32:26.418Z,53.08
2019-06-08T01:33:01.406Z,22.42
2019-06-08T01:33:35.548Z,20.88
2019-06-08T01:34:10.473Z,19.75
2019-06-08T01:34:45.263Z,19.90
2019-06-08T01:35:20.821Z,32.00
2019-06-08T01:35:55.686Z,29.30
2019-06-08T01:36:31.203Z,28.87
2019-06-08T01:37:05.739Z,25.62
2019-06-08T01:37:40.657Z,24.87
2019-06-08T01:38:15.424Z,22.48
2019-06-08T01:38:49.676Z,24.23
2019-06-08T01:39:25.144Z,22.45
2019-06-08T01:40:00.248Z,24.85
2019-06-08T01:40:34.570Z,23.22
2019-06-08T01:41:09.447Z,26.17
2019-06-08T01:41:44.258Z,23.85
2019-06-08T01:42:18.567Z,29.77
2019-06-08T01:42:53.314Z,30.48
2019-06-08T01:43:27.992Z,29.82
2019-06-08T01:44:02.490Z,25.32
2019-06-08T01:44:37.401Z,25.15
2019-06-08T01:45:15.208Z,27.73
2019-06-08T01:45:49.452Z,45.05
2019-06-08T01:46:24.432Z,60.23
2019-06-08T01:46:59.236Z,50.00
2019-06-08T01:47:33.678Z,29.57
2019-06-08T01:48:19.317Z,22.10
2019-06-08T01:48:45.174Z,21.68
2019-06-08T01:49:19.304Z,23.83
2019-06-08T01:49:54.100Z,23.60
2019-06-08T01:50:30.557Z,21.85
2019-06-08T01:51:04.913Z,24.47
2019-06-08T01:51:42.925Z,28.23
2019-06-08T01:52:17.598Z,27.50
2019-06-08T01:52:51.810Z,26.40
2019-06-08T01:53:26.906Z,28.38
2019-06-08T01:54:02.046Z,25.30
2019-06-08T01:54:36.259Z,24.87
2019-06-08T01:55:11.175Z,25.90
2019-06-08T01:55:45.997Z,41.08
2019-06-08T01:56:20.443Z,47.35
2019-06-08T01:56:55.234Z,39.98
2019-06-08T01:57:31.513Z,47.58
2019-06-08T01:58:06.345Z,46.90
2019-06-08T01:58:41.309Z,34.78
2019-06-08T01:59:16.114Z,25.17
2019-06-08T01:59:50.285Z,23.52
2019-06-08T02:00:31.664Z,24.40
2019-06-08T02:01:02.637Z,30.40
2019-06-08T02:01:36.848Z,35.17
2019-06-08T02:02:11.945Z,32.03
2019-06-08T02:02:46.828Z,29.27
2019-06-08T02:03:21.023Z,24.70
2019-06-08T02:03:55.878Z,27.25
2019-06-08T02:04:30.713Z,28.98
2019-06-08T02:05:05.767Z,27.17
2019-06-08T02:05:40.844Z,27.48
2019-06-08T02:06:15.793Z,27.27
2019-06-08T02:06:50.162Z,34.98
2019-06-08T02:07:26.345Z,37.48
2019-06-08T02:08:01.333Z,45.25
2019-06-08T02:08:35.605Z,49.40
2019-06-08T02:09:10.544Z,36.58
2019-06-08T02:09:45.622Z,19.65
2019-06-08T02:10:20.368Z,15.98
2019-06-08T02:10:55.025Z,29.12
2019-06-08T02:11:30.814Z,28.05
2019-06-08T02:12:05.674Z,35.60
2019-06-08T02:12:40.571Z,49.42
2019-06-08T02:13:15.267Z,44.80
2019-06-08T02:13:49.556Z,30.72
2019-06-08T02:14:25.026Z,27.62
2019-06-08T02:15:00.197Z,26.30
2019-06-08T02:15:35.385Z,23.25
2019-06-08T02:16:10.283Z,23.73
2019-06-08T02:16:45.064Z,27.80
2019-06-08T02:17:19.398Z,26.57
2019-06-08T02:17:54.431Z,50.33
2019-06-08T02:18:41.825Z,51.18
2019-06-08T02:19:05.653Z,33.80
2019-06-08T02:19:40.470Z,33.30
2019-06-08T02:20:17.182Z,44.53
2019-06-08T02:20:51.395Z,30.82
2019-06-08T02:21:26.757Z,20.62
2019-06-08T02:22:01.958Z,21.00
2019-06-08T02:22:36.329Z,18.57
2019-06-08T02:23:11.263Z,22.05
2019-06-08T02:23:46.049Z,21.52
2019-06-08T02:24:20.478Z,26.55
2019-06-08T02:24:55.367Z,22.77
2019-06-08T02:25:31.227Z,20.95
2019-06-08T02:26:05.956Z,20.20
2019-06-08T02:26:40.804Z,18.60
2019-06-08T02:27:15.835Z,25.00
2019-06-08T02:27:50.199Z,20.30
2019-06-08T02:28:25.035Z,16.50
2019-06-08T02:29:00.016Z,22.93
2019-06-08T02:29:34.326Z,25.50
2019-06-08T02:30:10.946Z,21.48
2019-06-08T02:30:46.044Z,20.48
2019-06-08T02:31:20.226Z,26.17
2019-06-08T02:31:54.939Z,16.87
2019-06-08T02:32:31.605Z,17.65
2019-06-08T02:33:05.657Z,19.75
2019-06-08T02:33:40.563Z,22.37
2019-06-08T02:34:15.289Z,25.17
2019-06-08T02:34:49.500Z,24.02
2019-06-08T02:35:24.409Z,24.30
2019-06-08T02:35:59.219Z,26.65
2019-06-08T02:36:35.395Z,40.05
2019-06-08T02:37:09.907Z,32.13
2019-06-08T02:37:44.904Z,38.65
2019-06-08T02:38:19.229Z,52.53
2019-06-08T02:38:53.860Z,55.50
2019-06-08T02:39:28.664Z,56.60
2019-06-08T02:40:03.163Z,50.28
2019-06-08T02:40:38.088Z,53.13
2019-06-08T02:41:13.025Z,55.55
2019-06-08T02:41:47.485Z,58.50
2019-06-08T02:42:22.363Z,52.13
2019-06-08T02:42:57.242Z,38.25
2019-06-08T02:43:33.253Z,42.33
2019-06-08T02:44:08.386Z,61.35
2019-06-08T02:44:43.232Z,48.20
2019-06-08T02:45:18.103Z,39.13
2019-06-08T02:45:52.890Z,29.42
2019-06-08T02:46:28.999Z,28.05
2019-06-08T02:47:04.370Z,26.35
2019-06-08T02:47:41.168Z,24.80
2019-06-08T02:48:15.902Z,25.15
2019-06-08T02:49:03.289Z,26.23
2019-06-08T02:49:26.819Z,26.48
2019-06-08T02:50:01.529Z,24.00
2019-06-08T02:50:55.782Z,25.72
2019-06-08T02:51:31.788Z,29.23
2019-06-08T02:52:07.562Z,29.40
2019-06-08T02:52:44.080Z,37.63
2019-06-08T02:53:19.646Z,42.83
2019-06-08T02:53:54.558Z,33.75
2019-06-08T02:54:30.256Z,42.20
2019-06-08T02:55:07.523Z,37.70
2019-06-08T02:55:44.079Z,31.95
2019-06-08T02:56:20.746Z,32.65
2019-06-08T02:56:56.605Z,31.20
2019-06-08T02:57:33.211Z,28.35
2019-06-08T02:58:08.223Z,28.90
2019-06-08T02:58:44.113Z,23.12
2019-06-08T02:59:21.900Z,25.05
2019-06-08T02:59:58.318Z,25.95
2019-06-08T03:00:35.411Z,28.17
2019-06-08T03:01:10.923Z,32.60
2019-06-08T03:01:48.334Z,34.75
2019-06-08T03:02:25.055Z,33.98
2019-06-08T03:03:01.767Z,33.45
2019-06-08T03:03:38.417Z,27.52
2019-06-08T03:04:15.565Z,24.45
2019-06-08T03:04:53.510Z,24.55
2019-06-08T03:05:29.714Z,22.50
2019-06-08T03:06:05.107Z,33.10
2019-06-08T03:06:41.904Z,43.23
2019-06-08T03:07:18.505Z,40.78
2019-06-08T03:07:53.908Z,26.30
2019-06-08T03:08:32.369Z,23.92
2019-06-08T03:09:08.395Z,19.35
2019-06-08T03:09:44.976Z,29.12
2019-06-08T03:10:19.872Z,32.88
2019-06-08T03:10:54.871Z,33.40
2019-06-08T03:11:30.508Z,28.42
2019-06-08T03:12:06.244Z,35.43
2019-06-08T03:12:42.532Z,28.95
2019-06-08T03:13:17.113Z,24.98
2019-06-08T03:13:52.928Z,25.35
2019-06-08T03:14:28.335Z,27.82
2019-06-08T03:15:05.473Z,25.60
2019-06-08T03:17:37.648Z,24.20
2019-06-08T03:18:12.855Z,25.88
2019-06-08T03:18:47.269Z,23.20
2019-06-08T03:19:23.181Z,19.60
2019-06-08T03:20:10.276Z,21.23
2019-06-08T03:20:44.712Z,21.23
2019-06-08T03:21:20.694Z,23.07
2019-06-08T03:21:55.524Z,25.60
2019-06-08T03:22:29.653Z,25.57
2019-06-08T03:23:04.947Z,25.75
2019-06-08T03:24:08.191Z,25.90
2019-06-08T03:24:44.170Z,25.55
2019-06-08T03:25:19.423Z,25.95
2019-06-08T03:25:54.689Z,24.37
2019-06-08T03:26:29.193Z,25.75
2019-06-08T03:27:04.720Z,27.15
2019-06-08T03:27:40.773Z,23.92
2019-06-08T03:28:15.869Z,24.00
2019-06-08T03:28:51.066Z,26.07
2019-06-08T03:29:26.449Z,28.45
2019-06-08T03:30:15.214Z,32.13
2019-06-08T03:30:45.070Z,29.23
2019-06-08T03:31:13.900Z,24.87
2019-06-08T03:31:56.235Z,24.20
2019-06-08T03:32:27.183Z,24.10
2019-06-08T03:33:01.889Z,25.62
2019-06-08T03:33:45.372Z,25.43
2019-06-08T03:34:53.881Z,21.62
2019-06-08T03:35:20.436Z,21.33
2019-06-08T03:35:58.096Z,22.93
2019-06-08T03:36:35.019Z,20.35
2019-06-08T03:37:08.301Z,22.15
2019-06-08T03:37:44.442Z,21.42
2019-06-08T03:38:20.664Z,20.95
2019-06-08T03:38:54.881Z,21.05
2019-06-08T03:39:29.779Z,23.67
2019-06-08T03:40:31.091Z,23.22
2019-06-08T03:41:12.076Z,21.50
2019-06-08T03:41:47.002Z,22.05
2019-06-08T03:42:21.877Z,21.73
2019-06-08T03:42:58.041Z,21.25
2019-06-08T03:43:32.478Z,22.70
2019-06-08T03:44:07.507Z,20.77
2019-06-08T03:44:42.902Z,19.48
2019-06-08T03:45:18.366Z,20.05
2019-06-08T03:45:53.074Z,19.25
2019-06-08T03:46:27.235Z,20.20
2019-06-08T03:47:02.017Z,19.52
2019-06-08T03:47:37.296Z,18.07
2019-06-08T03:48:12.951Z,18.85
2019-06-08T03:48:48.300Z,19.35
2019-06-08T03:49:40.245Z,19.27
2019-06-08T03:49:59.241Z,21.20
2019-06-08T03:50:35.453Z,20.65
2019-06-08T03:51:10.608Z,21.02
2019-06-08T03:51:48.331Z,21.20
2019-06-08T03:52:21.422Z,20.72
2019-06-08T03:52:56.395Z,20.50
2019-06-08T03:53:30.666Z,20.37
2019-06-08T03:54:05.827Z,19.62
2019-06-08T03:54:42.534Z,18.90
2019-06-08T03:55:16.782Z,19.40
2019-06-08T03:55:51.570Z,20.02
2019-06-08T03:56:26.565Z,19.55
2019-06-08T03:57:00.816Z,20.02
2019-06-08T03:57:35.872Z,20.55
2019-06-08T03:58:10.663Z,18.30
2019-06-08T03:58:47.632Z,17.37
2019-06-08T03:59:21.918Z,16.75
2019-06-08T03:59:56.676Z,19.48
2019-06-08T04:00:31.152Z,21.02
2019-06-08T04:01:06.053Z,19.57
2019-06-08T04:01:41.627Z,19.30
2019-06-08T04:02:16.012Z,20.25
2019-06-08T04:02:50.958Z,20.48
2019-06-08T04:03:25.775Z,18.50
2019-06-08T04:04:00.262Z,18.27
2019-06-08T04:04:35.456Z,16.93
2019-06-08T04:05:10.455Z,18.27
2019-06-08T04:05:46.429Z,20.00
2019-06-08T04:06:21.145Z,20.17
2019-06-08T04:06:55.861Z,20.08
2019-06-08T04:07:30.171Z,20.05
2019-06-08T04:08:05.177Z,18.60
2019-06-08T04:08:40.921Z,20.60
2019-06-08T04:09:15.849Z,21.60
2019-06-08T04:09:50.913Z,19.77
2019-06-08T04:10:25.919Z,19.20
2019-06-08T04:11:00.445Z,20.08
2019-06-08T04:11:37.610Z,21.40
2019-06-08T04:12:12.286Z,18.95
2019-06-08T04:12:46.476Z,19.82
2019-06-08T04:13:21.217Z,18.67
2019-06-08T04:13:56.027Z,18.55
2019-06-08T04:14:30.217Z,19.73
2019-06-08T04:15:05.867Z,19.57
2019-06-08T04:15:42.134Z,19.52
2019-06-08T04:16:16.794Z,18.50
2019-06-08T04:16:51.636Z,17.75
2019-06-08T04:17:26.453Z,17.42
2019-06-08T04:18:00.665Z,18.02
2019-06-08T04:18:35.565Z,17.85
2019-06-08T04:19:10.585Z,18.17
2019-06-08T04:20:08.348Z,17.60
2019-06-08T04:20:21.848Z,18.05
2019-06-08T04:20:56.659Z,17.07
2019-06-08T04:21:30.876Z,18.32
2019-06-08T04:22:05.796Z,18.23
2019-06-08T04:22:47.035Z,19.40
2019-06-08T04:23:21.126Z,20.08
2019-06-08T04:23:55.823Z,18.42
2019-06-08T04:24:30.518Z,19.35
2019-06-08T04:25:05.307Z,20.85
2019-06-08T04:25:41.014Z,19.48
2019-06-08T04:26:16.969Z,19.12
2019-06-08T04:26:51.086Z,20.65
2019-06-08T04:27:26.052Z,19.62
2019-06-08T04:28:00.838Z,20.05
2019-06-08T04:28:35.015Z,18.02
2019-06-08T04:29:09.939Z,18.05
2019-06-08T04:29:46.087Z,18.37
2019-06-08T04:30:21.086Z,17.73
2019-06-08T04:30:55.993Z,19.02
2019-06-08T04:31:31.055Z,18.52
2019-06-08T04:32:05.398Z,18.92
2019-06-08T04:32:40.724Z,19.55
2019-06-08T04:33:15.718Z,19.12
2019-06-08T04:33:50.911Z,19.30
2019-06-08T04:34:26.055Z,17.90
2019-06-08T04:35:00.870Z,19.52
2019-06-08T04:35:35.136Z,18.82
2019-06-08T04:36:10.340Z,18.73
2019-06-08T04:36:46.405Z,18.62
2019-06-08T04:37:21.770Z,19.37
2019-06-08T04:37:56.509Z,18.98
2019-06-08T04:38:31.373Z,18.92
2019-06-08T04:39:07.688Z,20.68
2019-06-08T04:39:44.336Z,19.20
2019-06-08T04:40:19.433Z,19.95
2019-06-08T04:40:53.731Z,19.05
2019-06-08T04:41:28.688Z,19.25
2019-06-08T04:42:03.414Z,19.12
2019-06-08T04:42:39.175Z,18.32
2019-06-08T04:43:14.233Z,17.42
2019-06-08T04:43:49.800Z,18.35
2019-06-08T04:44:24.297Z,17.95
2019-06-08T04:44:59.905Z,17.82
2019-06-08T04:45:34.930Z,19.62
2019-06-08T04:46:09.198Z,18.23
2019-06-08T04:46:45.531Z,18.48
2019-06-08T04:47:20.651Z,17.70
2019-06-08T04:47:54.902Z,18.25
2019-06-08T04:48:29.864Z,18.42
2019-06-08T04:49:04.606Z,18.57
2019-06-08T04:49:40.039Z,19.00
2019-06-08T04:50:22.597Z,19.37
2019-06-08T04:50:51.965Z,18.80
2019-06-08T04:51:26.437Z,18.52
2019-06-08T04:52:01.277Z,18.52
2019-06-08T04:52:36.027Z,17.80
2019-06-08T04:53:26.420Z,19.42
2019-06-08T04:54:01.391Z,19.25
2019-06-08T04:54:36.282Z,19.15
2019-06-08T04:55:15.588Z,20.00
2019-06-08T04:55:50.698Z,20.50
2019-06-08T04:56:25.587Z,19.52
2019-06-08T04:56:59.845Z,19.67
2019-06-08T04:57:39.360Z,19.62
2019-06-08T04:58:14.167Z,19.37
2019-06-08T04:58:51.019Z,18.80
2019-06-08T04:59:28.245Z,18.23
2019-06-08T05:00:11.788Z,19.02
2019-06-08T05:00:41.134Z,19.25
2019-06-08T05:01:16.102Z,18.65
2019-06-08T05:01:50.841Z,19.12
2019-06-08T05:02:25.274Z,17.98
2019-06-08T05:03:00.216Z,18.32
2019-06-08T05:03:34.949Z,17.82
2019-06-08T05:04:09.153Z,16.35
2019-06-08T05:04:45.327Z,16.97
2019-06-08T05:05:20.351Z,17.12
2019-06-08T05:05:54.503Z,17.17
2019-06-08T05:06:29.431Z,17.55
2019-06-08T05:07:04.394Z,17.95
2019-06-08T05:07:39.199Z,18.52
2019-06-08T05:08:14.255Z,18.07
2019-06-08T05:08:49.595Z,18.02
2019-06-08T05:09:24.275Z,18.27
2019-06-08T05:09:59.002Z,17.52
2019-06-08T05:10:33.667Z,17.40
2019-06-08T05:11:08.066Z,17.73
2019-06-08T05:11:43.335Z,17.60
2019-06-08T05:12:18.372Z,17.52
2019-06-08T05:12:52.636Z,16.02
2019-06-08T05:13:27.429Z,15.13
2019-06-08T05:14:02.354Z,17.12
2019-06-08T05:14:36.616Z,16.62
2019-06-08T05:15:11.594Z,17.32
2019-06-08T05:15:47.405Z,17.30
2019-06-08T05:16:21.745Z,16.75
2019-06-08T05:16:56.424Z,15.70
2019-06-08T05:17:31.245Z,15.48
2019-06-08T05:18:05.849Z,15.68
2019-06-08T05:18:41.267Z,15.35
2019-06-08T05:19:41.196Z,15.65
2019-06-08T05:20:15.995Z,15.05
2019-06-08T05:20:51.388Z,15.23
2019-06-08T05:21:26.566Z,14.55
2019-06-08T05:22:00.764Z,14.20
2019-06-08T05:22:35.556Z,14.35
2019-06-08T05:23:10.352Z,14.50
2019-06-08T05:23:45.545Z,14.38
2019-06-08T05:24:20.666Z,14.63
2019-06-08T05:24:55.456Z,14.95
2019-06-08T05:25:29.562Z,14.50
2019-06-08T05:26:04.277Z,13.80
2019-06-08T05:26:39.298Z,14.40
2019-06-08T05:27:13.600Z,13.68
2019-06-08T05:27:49.570Z,14.50
2019-06-08T05:28:24.373Z,13.83
2019-06-08T05:28:58.586Z,14.20
2019-06-08T05:29:33.264Z,15.03
2019-06-08T05:30:09.280Z,14.93
2019-06-08T05:30:43.625Z,14.75
2019-06-08T05:31:18.341Z,13.58
2019-06-08T05:31:53.726Z,13.68
2019-06-08T05:32:28.420Z,13.88
2019-06-08T05:33:03.392Z,14.20
2019-06-08T05:33:39.209Z,13.98
2019-06-08T05:34:13.760Z,14.03
2019-06-08T05:34:49.696Z,13.68
2019-06-08T05:35:24.821Z,13.58
2019-06-08T05:35:59.324Z,13.70
2019-06-08T05:36:34.053Z,13.28
2019-06-08T05:37:08.955Z,13.83
2019-06-08T05:37:43.674Z,12.73
2019-06-08T05:38:18.681Z,13.00
2019-06-08T05:38:53.561Z,11.93
2019-06-08T05:39:28.016Z,12.93
2019-06-08T05:40:03.059Z,13.45
2019-06-08T05:40:37.936Z,13.22
2019-06-08T05:41:12.278Z,13.62
2019-06-08T05:41:47.612Z,12.75
2019-06-08T05:42:22.503Z,13.40
2019-06-08T05:42:56.699Z,12.30
2019-06-08T05:43:31.515Z,12.88
2019-06-08T05:44:06.713Z,13.00
2019-06-08T05:44:41.619Z,12.40
2019-06-08T05:45:17.035Z,12.63
2019-06-08T05:45:52.022Z,11.95
2019-06-08T05:46:26.236Z,13.35
2019-06-08T05:47:01.332Z,12.37
2019-06-08T05:47:36.392Z,11.88
2019-06-08T05:48:10.575Z,12.63
2019-06-08T05:48:45.922Z,12.25
2019-06-08T05:49:21.015Z,12.10
2019-06-08T05:49:55.521Z,11.10
2019-06-08T05:50:30.432Z,11.88
2019-06-08T05:51:05.716Z,11.45
2019-06-08T05:51:40.107Z,11.35
2019-06-08T05:52:14.779Z,10.63
2019-06-08T05:52:50.354Z,12.00
2019-06-08T05:53:24.679Z,11.88
2019-06-08T05:54:02.858Z,11.73
2019-06-08T05:54:41.727Z,11.70
2019-06-08T05:55:16.297Z,12.55
2019-06-08T05:55:50.967Z,12.10
2019-06-08T05:56:25.846Z,12.15
2019-06-08T05:57:00.072Z,12.60
2019-06-08T05:57:34.833Z,12.37
2019-06-08T05:58:09.729Z,12.30
2019-06-08T05:58:44.015Z,12.75
2019-06-08T05:59:18.722Z,11.45
2019-06-08T05:59:53.557Z,11.97
2019-06-08T06:00:27.761Z,11.33
2019-06-08T06:01:02.862Z,11.12
2019-06-08T06:01:37.915Z,11.65
2019-06-08T06:02:19.846Z,12.07
2019-06-08T06:02:54.711Z,12.03
2019-06-08T06:03:29.605Z,11.28
2019-06-08T06:04:04.098Z,11.70
2019-06-08T06:04:40.686Z,11.83
2019-06-08T06:05:15.899Z,11.10
2019-06-08T06:05:50.823Z,11.12
2019-06-08T06:06:28.167Z,11.03
2019-06-08T06:07:03.054Z,10.95
2019-06-08T06:07:37.620Z,11.03
2019-06-08T06:08:18.800Z,11.33
2019-06-08T06:08:48.851Z,11.27
2019-06-08T06:09:23.310Z,11.03
2019-06-08T06:09:58.243Z,12.33
2019-06-08T06:10:33.194Z,12.03
2019-06-08T06:11:11.004Z,11.47
2019-06-08T06:11:46.864Z,10.88
2019-06-08T06:12:22.092Z,10.55
2019-06-08T06:12:56.430Z,11.73
2019-06-08T06:13:31.388Z,11.03
2019-06-08T06:14:07.137Z,10.60
2019-06-08T06:14:41.347Z,11.97
2019-06-08T06:15:16.891Z,11.90
2019-06-08T06:15:51.853Z,11.13
2019-06-08T06:16:26.132Z,11.23
2019-06-08T06:17:01.221Z,11.50
2019-06-08T06:17:36.063Z,10.77
2019-06-08T06:18:10.447Z,10.77
2019-06-08T06:18:45.479Z,11.57
2019-06-08T06:19:20.295Z,11.17
2019-06-08T06:19:54.510Z,11.37
2019-06-08T06:20:29.346Z,12.17
2019-06-08T06:21:10.939Z,11.40
2019-06-08T06:21:40.984Z,11.67
2019-06-08T06:22:16.221Z,10.93
2019-06-08T06:22:52.517Z,11.37
2019-06-08T06:23:27.073Z,11.77
2019-06-08T06:24:01.829Z,11.17
2019-06-08T06:24:36.644Z,11.20
2019-06-08T06:25:11.237Z,11.40
2019-06-08T06:25:47.455Z,10.23
2019-06-08T06:26:22.613Z,10.83
2019-06-08T06:26:56.895Z,10.87
2019-06-08T06:27:31.631Z,11.00
2019-06-08T06:28:06.714Z,11.97
2019-06-08T06:28:41.361Z,11.43
2019-06-08T06:29:16.263Z,11.00
2019-06-08T06:29:52.021Z,10.73
2019-06-08T06:30:26.637Z,10.93
2019-06-08T06:31:01.527Z,13.27
2019-06-08T06:31:36.474Z,10.07
2019-06-08T06:32:10.955Z,9.93
2019-06-08T06:32:46.043Z,10.23
2019-06-08T06:33:20.981Z,10.23
2019-06-08T06:33:55.201Z,9.53
2019-06-08T06:34:29.942Z,11.10
2019-06-08T06:35:05.674Z,12.20
2019-06-08T06:35:40.004Z,13.43
2019-06-08T06:36:14.872Z,9.33
2019-06-08T06:36:49.898Z,10.03
2019-06-08T06:37:24.270Z,9.63
2019-06-08T06:37:59.058Z,10.37
2019-06-08T06:38:33.711Z,9.83
2019-06-08T06:39:08.544Z,9.20
2019-06-08T06:39:43.933Z,9.50
2019-06-08T06:40:19.198Z,9.80
2019-06-08T06:40:53.706Z,9.50
2019-06-08T06:41:28.591Z,9.13
2019-06-08T06:42:03.303Z,9.60
2019-06-08T06:42:37.650Z,9.37
2019-06-08T06:43:12.791Z,9.47
2019-06-08T06:43:48.111Z,10.03
2019-06-08T06:44:22.405Z,10.20
2019-06-08T06:44:57.332Z,10.57
2019-06-08T06:45:32.343Z,9.83
2019-06-08T06:46:07.182Z,10.33
2019-06-08T06:46:42.079Z,11.03
2019-06-08T06:47:17.052Z,9.50
2019-06-08T06:47:52.691Z,9.90
2019-06-08T06:48:27.675Z,10.40
2019-06-08T06:49:02.598Z,9.90
2019-06-08T06:49:36.833Z,10.13
2019-06-08T06:50:11.866Z,10.20
2019-06-08T06:50:46.702Z,10.50
2019-06-08T06:51:26.177Z,9.60
2019-06-08T06:51:57.293Z,9.13
2019-06-08T06:52:32.142Z,9.27
2019-06-08T06:53:06.507Z,8.97
2019-06-08T06:53:42.656Z,9.80
2019-06-08T06:54:17.659Z,9.73
2019-06-08T06:54:53.165Z,9.93
2019-06-08T06:55:28.209Z,9.33
2019-06-08T06:56:02.922Z,8.27
2019-06-08T06:56:37.214Z,7.20
2019-06-08T06:57:12.205Z,7.73
2019-06-08T06:57:47.238Z,7.00
2019-06-08T06:58:21.574Z,7.17
2019-06-08T06:58:56.469Z,8.07
2019-06-08T06:59:31.359Z,7.70
2019-06-08T07:00:07.552Z,8.07
2019-06-08T07:00:43.235Z,8.67
2019-06-08T07:01:18.152Z,8.33
2019-06-08T07:01:57.344Z,7.87
2019-06-08T07:02:30.147Z,8.73
2019-06-08T07:03:05.016Z,8.40
2019-06-08T07:03:39.425Z,8.80
2019-06-08T07:04:14.241Z,8.30
2019-06-08T07:04:49.958Z,8.30
2019-06-08T07:05:24.588Z,8.93
2019-06-08T07:05:59.504Z,8.50
2019-06-08T07:06:34.405Z,8.97
2019-06-08T07:07:08.722Z,8.07
2019-06-08T07:07:44.132Z,7.63
2019-06-08T07:08:19.119Z,8.33
2019-06-08T07:08:54.514Z,7.13
2019-06-08T07:09:29.903Z,6.67
2019-06-08T07:10:05.548Z,7.43
2019-06-08T07:10:39.955Z,6.90
2019-06-08T07:11:15.012Z,6.77
2019-06-08T07:11:50.952Z,8.00
2019-06-08T07:12:25.358Z,7.20
2019-06-08T07:13:00.384Z,8.43
2019-06-08T07:13:35.689Z,7.40
2019-06-08T07:14:10.158Z,7.97
2019-06-08T07:14:45.131Z,7.40
2019-06-08T07:15:27.693Z,7.77
2019-06-08T07:16:17.366Z,7.30
2019-06-08T07:16:39.180Z,7.37
2019-06-08T07:17:14.028Z,6.83
2019-06-08T07:17:48.283Z,6.83
2019-06-08T07:18:22.955Z,7.07
2019-06-08T07:18:58.801Z,8.00
2019-06-08T07:19:33.283Z,7.53
2019-06-08T07:20:08.715Z,8.33
2019-06-08T07:20:43.994Z,6.87
2019-06-08T07:21:18.097Z,7.17
2019-06-08T07:21:53.573Z,7.70
2019-06-08T07:22:29.464Z,7.63
2019-06-08T07:23:03.930Z,6.90
2019-06-08T07:23:38.816Z,7.80
2019-06-08T07:24:13.555Z,8.10
2019-06-08T07:24:48.194Z,7.60
2019-06-08T07:25:23.107Z,7.87
2019-06-08T07:25:58.695Z,6.80
2019-06-08T07:26:33.001Z,7.27
2019-06-08T07:27:08.114Z,6.97
2019-06-08T07:27:42.838Z,6.73
2019-06-08T07:28:17.883Z,6.93
2019-06-08T07:28:54.059Z,6.57
2019-06-08T07:29:29.205Z,6.50
2019-06-08T07:30:03.649Z,6.70
2019-06-08T07:30:38.634Z,7.43
2019-06-08T07:31:13.417Z,6.93
2019-06-08T07:31:48.639Z,7.23
2019-06-08T07:32:24.305Z,7.37
2019-06-08T07:32:59.483Z,7.27
2019-06-08T07:33:34.297Z,7.20
2019-06-08T07:34:09.364Z,6.90
2019-06-08T07:34:44.544Z,6.70
2019-06-08T07:35:19.185Z,7.00
2019-06-08T07:35:55.295Z,7.00
2019-06-08T07:36:30.395Z,6.07
2019-06-08T07:37:04.718Z,6.37
2019-06-08T07:37:39.833Z,6.50
2019-06-08T07:38:14.619Z,6.73
2019-06-08T07:38:49.952Z,6.20
2019-06-08T07:39:25.405Z,6.53